Latest Coastal Weather Observations for Tasman Island

IDT60701

Issued at 6:22 pm EST Monday 21 August 2017 (issued every 10 minutes, with the page automatically refreshed every 10 minutes)

About coastal observations | Map of coastal stations | Coastal observations for TAS | Marine services | Other Formats
Station Details ID: 094155 Name: TASMAN ISLAND Lat: -43.24 Lon: 148.00 Height: 240.0 m
Data from the previous 72 hours. | See also: Recent months at Tasman Island
Date/Time
EST
Temp
°C
Wind Pressure Rain since
9am
mm
Weather Cloud Vis
km
Sea
Height
m
Swell
Dir  Spd
kts
Gust
kts
hPa Trend Height
m
Period
s
Dir
21/06:00pm 7.3 NNW 2 2 1013.6 - 0.0 - - - - - - -
21/05:30pm 7.4 CALM 0 1 1013.3 - 0.0 - - - - - - -
21/05:00pm 7.9 CALM 0 1 1013.2 - 0.0 - - - - - - -
21/04:30pm 8.5 SSW 1 2 1013.1 - 0.0 - - - - - - -
21/04:00pm 8.2 S 1 3 1013.1 - 0.0 - - - - - - -
21/03:30pm 8.5 SE 2 3 1013.0 - 0.0 - - - - - - -
21/03:00pm 9.2 ESE 3 5 1013.0 - 0.0 - - - - - - -
21/02:30pm 9.1 ESE 2 4 1013.0 - 0.0 - - - - - - -
21/02:00pm 8.4 SSW 3 5 1013.2 - 0.0 - - - - - - -
21/01:30pm 9.7 SSE 4 6 1013.6 - 0.0 - - - - - - -
21/01:00pm 9.4 SE 2 4 1013.7 - 0.0 - - - - - - -
21/12:30pm 8.9 E 4 7 1013.9 - 0.0 - - - - - - -
21/12:00pm 9.5 E 4 7 1014.2 - 0.0 - - - - - - -
21/11:30am 10.7 E 3 5 1014.5 - 0.0 - - - - - - -
21/11:00am 10.3 WNW 2 4 1014.8 - 0.0 - - - - - - -
21/10:30am 9.6 SE 3 7 1014.9 - 0.0 - - - - - - -
21/10:00am 9.4 WSW 4 6 1015.1 - 0.0 - - - - - - -
21/09:30am 9.3 NW 2 5 1015.2 - 0.0 - - - - - - -
21/09:00am 8.1 NW 4 5 1015.4 - 0.0 - - - - - - -
21/08:30am 7.4 WNW 4 6 1015.5 - 0.0 - - - - - - -
21/08:00am 7.0 NW 5 9 1015.6 - 0.0 - - - - - - -
21/07:30am 7.5 S 2 7 1015.4 - 0.0 - - - - - - -
21/07:00am 6.9 NNW 2 3 1015.1 - 0.0 - - - - - - -
21/06:30am 7.4 NNE 3 5 1015.1 - 0.0 - - - - - - -
21/06:00am 7.0 NNW 6 9 1015.1 - 0.0 - - - - - - -
21/05:30am 6.7 NW 3 6 1015.2 - 0.0 - - - - - - -
21/05:00am 6.8 NW 5 8 1015.2 - 0.0 - - - - - - -
21/04:30am 6.8 NW 3 4 1015.3 - 0.0 - - - - - - -
21/04:00am 6.5 WNW 5 7 1015.5 - 0.0 - - - - - - -
21/03:30am 6.2 WNW 4 6 1015.6 - 0.0 - - - - - - -
21/03:00am 6.3 W 4 5 1015.7 - 0.0 - - - - - - -
21/02:30am 6.2 W 5 6 1016.0 - 0.0 - - - - - - -
21/02:00am 6.5 WNW 3 5 1016.2 - 0.0 - - - - - - -
21/01:30am 6.8 W 3 5 1016.4 - 0.0 - - - - - - -
21/01:00am 6.8 W 3 4 1016.5 - 0.0 - - - - - - -
21/12:30am 6.9 WNW 3 5 1016.7 - 0.0 - - - - - - -
21/12:00am 7.0 N 5 7 1016.9 - 0.0 - - - - - - -
 
Date/Time
EST
Temp
°C
Wind Pressure Rain since
9am
mm
Weather Cloud Vis
km
Sea
Height
m
Swell
Dir  Spd
kts
Gust
kts
hPa Trend Height
m
Period
s
Dir
20/11:30pm 7.3 N 5 7 1017.3 - 0.0 - - - - - - -
20/11:00pm 7.5 N 7 9 1017.6 - 0.0 - - - - - - -
20/10:30pm 7.9 N 7 10 1017.9 - 0.0 - - - - - - -
20/10:00pm 7.7 N 8 11 1018.1 - 0.0 - - - - - - -
20/09:30pm 7.4 N 9 11 1018.0 - 0.0 - - - - - - -
20/09:00pm 7.4 N 8 12 1017.9 - 0.0 - - - - - - -
20/08:30pm 7.6 NNE 8 10 1017.9 - 0.0 - - - - - - -
20/08:00pm 7.7 N 9 11 1017.9 - 0.0 - - - - - - -
20/07:30pm 7.9 N 10 13 1017.9 - 0.0 - - - - - - -
20/07:00pm 8.1 N 8 11 1018.1 - 0.0 - - - - - - -
20/06:30pm 8.2 NNE 6 9 1018.1 - 0.0 - - - - - - -
20/06:00pm 8.0 NNE 5 7 1018.0 - 0.0 - - - - - - -
20/05:30pm 7.8 NE 4 5 1018.0 - 0.0 - - - - - - -
20/05:00pm - - - - - - - - - - - - - -
20/04:30pm 9.0 NNE 3 5 1018.1 - 0.0 - - - - - - -
20/04:00pm 10.3 WNW 3 5 1018.1 - 0.0 - - - - - - -
20/03:30pm 10.2 WNW 4 6 1018.2 - 0.0 - - - - - - -
20/03:00pm 10.2 NW 4 6 1018.3 - 0.0 - - - - - - -
20/02:30pm 10.3 WNW 5 8 1018.5 - 0.0 - - - - - - -
20/02:00pm 10.6 WNW 4 11 1018.8 - 0.0 - - - - - - -
20/01:30pm 10.8 WNW 3 8 1019.0 - 0.0 - - - - - - -
20/01:00pm 10.2 WSW 5 10 1019.4 - 0.0 - - - - - - -
20/12:30pm 9.4 WNW 8 15 1019.7 - 0.0 - - - - - - -
20/12:00pm 9.4 NW 9 15 1020.0 - 0.0 - - - - - - -
20/11:30am 9.1 WNW 8 16 1020.3 - 0.0 - - - - - - -
20/11:00am 8.4 WNW 10 18 1020.7 - 0.0 - - - - - - -
20/10:30am 8.1 WNW 10 17 1020.8 - 0.0 - - - - - - -
20/10:00am 8.0 NW 7 16 1020.9 - 0.0 - - - - - - -
20/09:30am 7.4 NW 6 14 1020.8 - 0.0 - - - - - - -
20/09:00am 7.4 WNW 5 12 1021.0 - 2.2 - - - - - - -
20/08:30am 6.8 WNW 5 15 1021.4 - 2.2 - - - - - - -
20/08:00am 6.5 WNW 4 15 1021.3 - 2.2 - - - - - - -
20/07:30am 6.1 WNW 5 13 1021.1 - 2.2 - - - - - - -
20/07:00am 5.6 WNW 5 14 1020.9 - 2.2 - - - - - - -
20/06:30am 5.3 WNW 6 14 1020.9 - 2.2 - - - - - - -
20/06:00am 5.3 WNW 4 13 1020.9 - 2.2 - - - - - - -
20/05:30am 5.2 WNW 4 16 1020.9 - 2.2 - - - - - - -
20/05:00am 5.0 NW 4 14 1020.9 - 2.2 - - - - - - -
20/04:30am 5.0 NW 4 13 1021.0 - 2.2 - - - - - - -
20/04:00am 5.0 WNW 5 16 1021.0 - 2.2 - - - - - - -
20/03:30am 5.0 WNW 5 14 1021.1 - 2.2 - - - - - - -
20/03:00am 5.0 WNW 4 15 1021.1 - 2.2 - - - - - - -
20/02:30am 5.2 W 4 11 1021.1 - 2.2 - - - - - - -
20/02:00am 5.1 WNW 5 14 1021.4 - 2.2 - - - - - - -
20/01:30am 5.0 WNW 3 10 1021.6 - 2.2 - - - - - - -
20/01:00am 5.2 NW 8 17 1021.7 - 2.2 - - - - - - -
20/12:30am 5.0 NW 5 13 1021.9 - 2.2 - - - - - - -
20/12:00am 5.1 WSW 3 10 1021.9 - 2.2 - - - - - - -
 
Date/Time
EST
Temp
°C
Wind Pressure Rain since
9am
mm
Weather Cloud Vis
km
Sea
Height
m
Swell
Dir  Spd
kts
Gust
kts
hPa Trend Height
m
Period
s
Dir
19/11:30pm 5.2 W 3 11 1021.8 - 2.2 - - - - - - -
19/11:00pm 5.4 NNW 4 15 1021.9 - 2.2 - - - - - - -
19/10:30pm 5.7 NNE 4 11 1021.9 - 2.2 - - - - - - -
19/10:00pm 6.1 NNW 4 14 1021.8 - 2.2 - - - - - - -
19/09:30pm 6.3 S 4 13 1021.9 - 2.2 - - - - - - -
19/09:00pm 6.5 WNW 5 14 1022.0 - 2.2 - - - - - - -
19/08:30pm 6.6 WSW 6 18 1022.0 - 2.2 - - - - - - -
19/08:00pm 6.5 SSW 6 24 1022.1 - 2.2 - - - - - - -
19/07:30pm 6.7 WSW 9 21 1022.0 - 2.2 - - - - - - -
19/07:00pm 6.3 WSW 13 29 1022.2 - 2.2 - - - - - - -
19/06:30pm 6.3 WSW 9 24 1022.2 - 2.2 - - - - - - -
19/06:01pm 6.2 SSW 15 31 1022.1 - 2.2 - - - - - - -
19/06:00pm 6.2 SSW 14 31 1022.1 - 2.0 Recent precip. - - - - - -
19/05:40pm 6.2 SW 15 31 1021.9 - 1.8 - - - - - - -
19/05:30pm 6.6 SW 11 29 1021.8 - 1.8 - - - - - - -
19/05:00pm 6.7 SW 11 27 1021.7 - 1.8 - - - - - - -
19/04:30pm 7.6 SW 11 23 1021.6 - 1.8 - - - - - - -
19/04:00pm 7.2 SW 15 30 1021.4 - 1.8 - - - - - - -
19/03:51pm 7.2 SW 15 25 1021.2 - 1.8 - - - - - - -
19/03:30pm 7.4 SW 11 27 1021.2 - 1.8 - - - - - - -
19/03:00pm 7.3 SW 13 26 1020.9 - 1.8 - - - - - - -
19/02:30pm 7.5 WSW 12 26 1020.9 - 1.8 - - - - - - -
19/02:00pm 7.3 SW 12 25 1020.7 - 1.8 - - - - - - -
19/01:30pm 7.4 SW 9 25 1020.6 - 1.8 - - - - - - -
19/01:00pm 6.0 ENE 8 18 1020.6 - 1.8 - - - - - - -
19/12:30pm 6.3 SW 18 34 1020.6 - 1.8 - - - - - - -
19/12:22pm 5.5 WSW 11 34 1020.6 - 1.8 - - - - - - -
19/12:00pm 5.1 SW 10 33 1020.9 - 1.8 Recent precip. - - - - - -
19/11:30am 4.8 WSW 13 24 1020.8 - 1.4 - - - - - - -
19/11:00am 5.3 W 7 21 1021.1 - 0.4 - - - - - - -
19/10:30am 5.4 WSW 8 22 1021.0 - 0.4 - - - - - - -
19/10:00am 5.1 SW 11 29 1021.1 - 0.4 - - - - - - -
19/09:30am 6.5 NNE 4 14 1020.9 - 0.0 - - - - - - -
19/09:00am 5.6 NNE 4 12 1020.8 - 7.8 - - - - - - -
19/08:30am 5.5 SW 16 30 1020.4 - 7.8 - - - - - - -
19/08:00am 3.4 SSW 17 39 1020.6 - 7.8 - - - - - - -
19/07:56am 4.0 SSW 15 39 1020.3 - 7.8 - - - - - - -
19/07:55am 4.4 SSW 14 39 1020.2 - 7.8 - - - - - - -
19/07:30am 4.0 SSW 16 23 1020.3 - 7.8 - - - - - - -
19/07:00am 3.3 SW 19 27 1019.8 - 7.8 - - - - - - -
19/06:38am 3.8 SSW 16 32 1019.5 - 6.6 - - - - - - -
19/06:30am 4.8 SSW 13 25 1019.4 - 6.2 - - - - - - -
19/06:14am 4.6 SSW 15 32 1019.0 - 6.2 - - - - - - -
19/06:00am 4.4 SW 11 28 1018.8 - 6.2 - - - - - - -
19/05:36am 5.1 SSW 15 27 1018.7 - 6.2 - - - - - - -
19/05:30am 5.1 SSW 15 25 1018.6 - 6.2 - - - - - - -
19/05:00am 4.4 SSW 17 31 1018.3 - 6.2 - - - - - - -
19/04:31am 5.3 SSW 15 26 1018.0 - 6.2 - - - - - - -
19/04:30am 5.2 SSW 14 26 1017.9 - 6.2 - - - - - - -
19/04:05am 5.1 SSW 15 28 1017.8 - 6.2 - - - - - - -
19/04:00am 5.5 SSW 14 23 1017.7 - 6.2 - - - - - - -
19/03:30am 5.1 SSW 19 29 1017.5 - 6.2 - - - - - - -
19/03:00am 5.2 SSW 19 31 1016.9 - 6.2 Recent precip. - - - - - -
19/02:30am 4.7 SSW 19 32 1016.5 - 6.2 - - - - - - -
19/02:00am 3.6 SSW 18 35 1016.6 - 6.0 - - - - - - -
19/01:47am 3.7 SSW 16 29 1016.5 - 6.0 - - - - - - -
19/01:30am 3.9 SSW 12 19 1016.5 - 5.8 - - - - - - -
19/01:01am 3.9 SSW 17 28 1016.0 - 5.8 - - - - - - -
19/01:00am 3.8 SSW 18 28 1016.0 - 5.8 - - - - - - -
19/12:37am 4.2 SSW 15 31 1015.7 - 5.6 - - - - - - -
19/12:30am 4.2 SSW 12 22 1015.7 - 5.6 - - - - - - -
19/12:08am 3.5 SSW 15 25 1015.6 - 5.6 - - - - - - -
19/12:00am 4.6 S 12 23 1015.4 - 5.4 Rain - - - - - -
 
Date/Time
EST
Temp
°C
Wind Pressure Rain since
9am
mm
Weather Cloud Vis
km
Sea
Height
m
Swell
Dir  Spd
kts
Gust
kts
hPa Trend Height
m
Period
s
Dir
18/11:30pm 3.4 SSW 25 36 1015.2 - 5.2 - - - - - - -
18/11:18pm 3.8 SSW 20 35 1014.9 - 5.2 - - - - - - -
18/11:07pm 4.9 S 15 25 1014.8 - 4.8 - - - - - - -
18/11:00pm 5.4 SSW 17 25 1014.7 - 4.8 - - - - - - -
18/10:30pm 4.6 SSW 17 28 1014.5 - 4.8 - - - - - - -
18/10:02pm 4.8 SSW 20 30 1014.3 - 4.8 - - - - - - -
18/10:00pm 4.8 SSW 22 31 1014.2 - 4.8 - - - - - - -
18/09:47pm 5.5 SSW 17 39 1013.9 - 4.8 - - - - - - -
18/09:30pm 5.1 SSW 16 26 1013.8 - 4.8 - - - - - - -
18/09:00pm 4.9 SW 19 29 1013.1 - 4.8 Recent precip. - - - - - -
18/08:30pm 5.2 SSW 23 35 1012.6 - 4.6 - - - - - - -
18/08:00pm 4.5 SSW 25 36 1012.2 - 4.6 - - - - - - -
18/07:30pm 3.4 SSW 22 38 1012.0 - 4.6 - - - - - - -
18/07:00pm 5.4 SSW 18 31 1011.1 - 4.4 - - - - - - -
18/06:30pm 5.2 SSW 22 33 1010.5 - 4.4 - - - - - - -

Other Formats:

Comma delimited format used in spreadsheet applications
http://www.bom.gov.au/fwo/IDT60701/IDT60701.95986.axf

JavaScript Object Notation format (JSON) in row-major order
http://www.bom.gov.au/fwo/IDT60701/IDT60701.95986.json